createdAt,value
2016-04-14T00:00:34.186Z,50
2016-04-14T00:01:35.455Z,50
2016-04-14T00:02:36.472Z,50
2016-04-14T00:03:37.803Z,50
2016-04-14T00:04:39.133Z,50
2016-04-14T00:05:40.699Z,50
2016-04-14T00:06:42.296Z,50
2016-04-14T00:07:43.877Z,50
2016-04-14T00:08:45.488Z,50
2016-04-14T00:09:47.146Z,50
2016-04-14T00:10:48.619Z,50
2016-04-14T00:11:50.263Z,50
2016-04-14T00:12:51.297Z,50
2016-04-14T00:13:52.862Z,50
2016-04-14T00:14:54.443Z,50
2016-04-14T00:15:56.040Z,50
2016-04-14T00:16:57.713Z,51
2016-04-14T00:17:55.373Z,51
2016-04-14T00:18:53.282Z,51
2016-04-14T00:19:50.941Z,51
2016-04-14T00:20:48.709Z,51
2016-04-14T00:21:46.662Z,51
2016-04-14T00:22:47.587Z,51
2016-04-14T00:23:45.465Z,51
2016-04-14T00:24:43.248Z,51
2016-04-14T00:25:40.923Z,51
2016-04-14T00:26:38.691Z,51
2016-04-14T00:27:36.460Z,51
2016-04-14T00:28:34.243Z,51
2016-04-14T00:29:32.027Z,51
2016-04-14T00:30:29.812Z,51
2016-04-14T00:31:27.767Z,51
2016-04-14T00:32:28.660Z,51
2016-04-14T00:33:26.445Z,51
2016-04-14T00:34:24.228Z,51
2016-04-14T00:35:21.997Z,51
2016-04-14T00:36:19.785Z,51
2016-04-14T00:37:17.759Z,51
2016-04-14T00:38:15.590Z,51
2016-04-14T00:39:13.483Z,51
2016-04-14T00:40:11.313Z,51
2016-04-14T00:41:09.238Z,51
2016-04-14T00:42:10.257Z,51
2016-04-14T00:43:08.290Z,51
2016-04-14T00:44:06.449Z,51
2016-04-14T00:45:04.077Z,51
2016-04-14T00:46:02.159Z,51
2016-04-14T00:47:00.177Z,51
2016-04-14T00:47:58.226Z,51
2016-04-14T00:48:56.260Z,51
2016-04-14T00:49:54.279Z,51
2016-04-14T00:50:52.375Z,51
2016-04-14T00:51:53.392Z,51
2016-04-14T00:52:51.412Z,51
2016-04-14T00:53:49.226Z,51
2016-04-14T00:54:47.226Z,51
2016-04-14T00:55:45.276Z,51
2016-04-14T00:56:43.419Z,51
2016-04-14T00:57:41.344Z,51
2016-04-14T00:58:39.362Z,51
2016-04-14T00:59:37.521Z,51
2016-04-14T01:00:35.492Z,51
2016-04-14T01:01:36.495Z,51
2016-04-14T01:02:34.529Z,51
2016-04-14T01:03:32.563Z,51
2016-04-14T01:04:30.613Z,51
2016-04-14T01:05:28.646Z,51
2016-04-14T01:06:26.666Z,51
2016-04-14T01:07:24.715Z,51
2016-04-14T01:08:22.843Z,51
2016-04-14T01:09:20.876Z,51
2016-04-14T01:10:18.894Z,51
2016-04-14T01:11:19.991Z,51
2016-04-14T01:12:17.899Z,51
2016-04-14T01:13:15.934Z,51
2016-04-14T01:14:13.968Z,51
2016-04-14T01:15:12.126Z,51
2016-04-14T01:16:10.035Z,51
2016-04-14T01:17:08.070Z,51
2016-04-14T01:18:06.123Z,51
2016-04-14T01:19:04.241Z,51
2016-04-14T01:20:02.228Z,51
2016-04-14T01:21:03.278Z,51
2016-04-14T01:22:01.280Z,51
2016-04-14T01:22:59.408Z,51
2016-04-14T01:23:57.333Z,51
2016-04-14T01:24:55.507Z,51
2016-04-14T01:25:53.525Z,51
2016-04-14T01:26:51.669Z,51
2016-04-14T01:27:49.468Z,51
2016-04-14T01:28:47.546Z,51
2016-04-14T01:29:45.611Z,51
2016-04-14T01:31:44.757Z,51
2016-04-14T01:32:42.699Z,51
2016-04-14T01:33:40.701Z,51
2016-04-14T01:34:38.750Z,51
2016-04-14T01:35:36.799Z,51
2016-04-14T01:36:34.802Z,51
2016-04-14T01:37:32.837Z,51
2016-04-14T01:38:30.870Z,51
2016-04-14T01:39:28.967Z,51
2016-04-14T01:40:29.985Z,51
2016-04-14T01:41:28.018Z,51
2016-04-14T01:42:26.053Z,51
2016-04-14T01:43:24.087Z,51
2016-04-14T01:44:22.231Z,51
2016-04-14T01:45:20.154Z,51
2016-04-14T01:46:18.173Z,51
2016-04-14T01:47:16.206Z,51
2016-04-14T01:48:14.366Z,51
2016-04-14T01:49:12.447Z,51
2016-04-14T01:50:13.356Z,51
2016-04-14T01:51:11.499Z,51
2016-04-14T01:52:09.423Z,51
2016-04-14T01:54:05.475Z,51
2016-04-14T01:55:03.510Z,51
2016-04-14T01:56:01.543Z,51
2016-04-14T01:56:59.578Z,51
2016-04-14T01:57:57.611Z,51
2016-04-14T01:58:55.708Z,51
2016-04-14T01:59:56.836Z,51
2016-04-14T02:00:54.760Z,51
2016-04-14T02:01:52.779Z,51
2016-04-14T02:02:50.953Z,51
2016-04-14T02:03:48.969Z,51
2016-04-14T02:05:45.052Z,51
2016-04-14T02:07:40.979Z,51
2016-04-14T02:08:39.013Z,51
2016-04-14T02:09:40.094Z,51
2016-04-14T02:10:38.362Z,51
2016-04-14T02:11:36.271Z,51
2016-04-14T02:12:34.180Z,51
2016-04-14T02:13:32.339Z,51
2016-04-14T02:15:28.407Z,51
2016-04-14T02:16:26.442Z,51
2016-04-14T02:17:24.601Z,51
2016-04-14T02:18:22.697Z,51
2016-04-14T02:19:23.589Z,51
2016-04-14T02:21:19.658Z,51
2016-04-14T02:22:17.567Z,51
2016-04-14T02:23:15.601Z,51
2016-04-14T02:24:13.759Z,51
2016-04-14T02:25:11.669Z,51
2016-04-14T02:26:09.827Z,51
2016-04-14T02:27:07.861Z,51
2016-04-14T02:28:05.863Z,51
2016-04-14T02:30:04.885Z,51
2016-04-14T02:31:03.043Z,51
2016-04-14T02:32:01.063Z,51
2016-04-14T02:32:58.971Z,51
2016-04-14T02:33:57.130Z,51
2016-04-14T02:34:55.164Z,51
2016-04-14T02:35:53.198Z,51
2016-04-14T02:36:51.232Z,51
2016-04-14T02:37:49.185Z,51
2016-04-14T02:38:50.206Z,51
2016-04-14T02:39:48.362Z,51
2016-04-14T02:40:46.396Z,51
2016-04-14T02:41:44.430Z,52
2016-04-14T02:42:42.839Z,51
2016-04-14T02:43:40.639Z,52
2016-04-14T02:44:38.923Z,52
2016-04-14T02:45:37.331Z,52
2016-04-14T02:46:35.490Z,52
2016-04-14T02:48:34.855Z,52
2016-04-14T02:49:33.139Z,52
2016-04-14T02:50:31.533Z,51
2016-04-14T02:51:29.472Z,52
2016-04-14T02:52:27.742Z,52
2016-04-14T02:53:26.025Z,52
2016-04-14T02:54:24.325Z,52
2016-04-14T02:55:22.717Z,51
2016-04-14T02:56:20.642Z,52
2016-04-14T02:57:18.989Z,52
2016-04-14T02:58:20.116Z,52
2016-04-14T02:59:18.291Z,52
2016-04-14T03:00:16.591Z,52
2016-04-14T03:01:14.859Z,52
2016-04-14T03:02:13.143Z,52
2016-04-14T03:03:11.552Z,52
2016-04-14T03:04:09.835Z,52
2016-04-14T03:05:08.011Z,52
2016-04-14T03:06:06.419Z,52
2016-04-14T03:07:04.640Z,51
2016-04-14T03:08:05.660Z,52
2016-04-14T03:10:02.227Z,52
2016-04-14T03:11:00.510Z,52
2016-04-14T03:11:58.795Z,52
2016-04-14T03:12:57.094Z,52
2016-04-14T03:13:55.488Z,52
2016-04-14T03:14:53.662Z,52
2016-04-14T03:15:51.945Z,52
2016-04-14T03:16:50.289Z,52
2016-04-14T03:17:51.311Z,52
2016-04-14T03:18:49.717Z,52
2016-04-14T03:19:47.876Z,51
2016-04-14T03:20:45.926Z,52
2016-04-14T03:21:44.209Z,52
2016-04-14T03:22:42.650Z,52
2016-04-14T03:23:40.918Z,51
2016-04-14T03:24:38.936Z,52
2016-04-14T03:25:37.189Z,52
2016-04-14T03:26:35.442Z,51
2016-04-14T03:27:36.585Z,52
2016-04-14T03:28:34.870Z,52
2016-04-14T03:29:33.153Z,52
2016-04-14T03:30:31.328Z,52
2016-04-14T03:31:29.611Z,52
2016-04-14T03:32:27.896Z,52
2016-04-14T03:33:26.180Z,51
2016-04-14T03:34:24.213Z,52
2016-04-14T03:35:22.529Z,52
2016-04-14T03:36:20.843Z,51
2016-04-14T03:37:21.987Z,52
2016-04-14T03:38:20.271Z,52
2016-04-14T03:39:18.555Z,52
2016-04-14T03:40:16.729Z,52
2016-04-14T03:41:15.263Z,52
2016-04-14T03:42:13.298Z,52
2016-04-14T03:43:11.596Z,52
2016-04-14T03:44:09.881Z,52
2016-04-14T03:45:08.165Z,52
2016-04-14T03:46:06.511Z,52
2016-04-14T03:47:07.530Z,52
2016-04-14T03:48:05.923Z,52
2016-04-14T03:49:04.097Z,52
2016-04-14T03:50:02.382Z,52
2016-04-14T03:51:00.681Z,52
2016-04-14T03:51:58.965Z,52
2016-04-14T03:52:57.373Z,52
2016-04-14T03:53:55.658Z,52
2016-04-14T03:54:53.942Z,52
2016-04-14T03:55:52.164Z,52
2016-04-14T03:56:53.197Z,52
2016-04-14T03:57:51.465Z,52
2016-04-14T03:58:49.761Z,52
2016-04-14T03:59:48.046Z,52
2016-04-14T04:00:46.346Z,52
2016-04-14T04:01:44.630Z,52
2016-04-14T04:02:42.913Z,52
2016-04-14T04:04:39.607Z,52
2016-04-14T04:05:37.952Z,52
2016-04-14T04:06:38.846Z,52
2016-04-14T04:08:35.445Z,52
2016-04-14T04:09:33.699Z,52
2016-04-14T04:10:32.013Z,52
2016-04-14T04:11:30.406Z,52
2016-04-14T04:12:28.566Z,52
2016-04-14T04:13:26.865Z,52
2016-04-14T04:14:25.134Z,52
2016-04-14T04:15:23.480Z,52
2016-04-14T04:16:24.498Z,52
2016-04-14T04:17:22.798Z,52
2016-04-14T04:18:21.082Z,52
2016-04-14T04:19:19.365Z,52
2016-04-14T04:20:17.665Z,52
2016-04-14T04:22:14.234Z,52
2016-04-14T04:23:12.642Z,52
2016-04-14T04:24:10.817Z,52
2016-04-14T04:25:09.163Z,52
2016-04-14T04:26:10.212Z,52
2016-04-14T04:27:08.450Z,52
2016-04-14T04:28:06.734Z,52
2016-04-14T04:29:05.158Z,52
2016-04-14T04:30:03.316Z,52
2016-04-14T04:31:01.601Z,52
2016-04-14T04:31:59.885Z,52
2016-04-14T04:32:58.169Z,52
2016-04-14T04:33:56.453Z,52
2016-04-14T04:34:54.799Z,52
2016-04-14T04:35:55.833Z,52
2016-04-14T04:36:54.102Z,52
2016-04-14T04:37:52.385Z,52
2016-04-14T04:38:50.682Z,52
2016-04-14T04:39:48.966Z,52
2016-04-14T04:40:47.249Z,52
2016-04-14T04:41:45.518Z,52
2016-04-14T04:42:43.943Z,52
2016-04-14T04:43:42.102Z,52
2016-04-14T04:44:40.448Z,52
2016-04-14T04:45:41.467Z,52
2016-04-14T04:46:39.751Z,52
2016-04-14T04:47:38.065Z,52
2016-04-14T04:48:36.443Z,52
2016-04-14T04:49:34.618Z,52
2016-04-14T04:50:32.901Z,52
2016-04-14T04:51:31.295Z,52
2016-04-14T04:52:29.470Z,52
2016-04-14T04:53:27.770Z,52
2016-04-14T04:54:26.100Z,52
2016-04-14T04:55:27.119Z,52
2016-04-14T04:56:25.512Z,52
2016-04-14T04:57:23.686Z,52
2016-04-14T04:58:22.173Z,52
2016-04-14T04:59:20.785Z,52
2016-04-14T05:00:19.303Z,52
2016-04-14T05:01:17.589Z,52
2016-04-14T05:02:16.138Z,52
2016-04-14T05:03:14.421Z,52
2016-04-14T05:04:12.784Z,52
2016-04-14T05:05:13.786Z,52
2016-04-14T05:06:12.320Z,52
2016-04-14T05:07:10.604Z,52
2016-04-14T05:08:08.904Z,52
2016-04-14T05:09:07.452Z,52
2016-04-14T05:10:05.988Z,52
2016-04-14T05:11:04.755Z,52
2016-04-14T05:12:03.055Z,52
2016-04-14T05:13:01.619Z,52
2016-04-14T05:14:00.275Z,52
2016-04-14T05:15:01.322Z,52
2016-04-14T05:15:59.901Z,52
2016-04-14T05:16:58.511Z,52
2016-04-14T05:17:57.064Z,52
2016-04-14T05:18:55.646Z,52
2016-04-14T05:19:54.305Z,52
2016-04-14T05:20:52.727Z,52
2016-04-14T05:21:51.277Z,52
2016-04-14T05:22:49.952Z,52
2016-04-14T05:23:48.437Z,52
2016-04-14T05:24:49.476Z,52
2016-04-14T05:25:48.016Z,52
2016-04-14T05:26:46.555Z,52
2016-04-14T05:27:45.111Z,52
2016-04-14T05:28:43.650Z,52
2016-04-14T05:29:42.202Z,52
2016-04-14T05:30:40.846Z,52
2016-04-14T05:31:39.290Z,52
2016-04-14T05:32:37.826Z,52
2016-04-14T05:33:36.440Z,52
2016-04-14T05:34:37.458Z,52
2016-04-14T05:35:36.009Z,52
2016-04-14T05:36:34.529Z,52
2016-04-14T05:37:33.079Z,52
2016-04-14T05:38:31.613Z,52
2016-04-14T05:39:30.163Z,52
2016-04-14T05:40:28.838Z,52
2016-04-14T05:41:27.246Z,52
2016-04-14T05:42:25.905Z,52
2016-04-14T05:43:24.376Z,52
2016-04-14T05:44:25.394Z,52
2016-04-14T05:45:23.944Z,52
2016-04-14T05:46:22.479Z,52
2016-04-14T05:47:21.138Z,52
2016-04-14T05:48:19.562Z,52
2016-04-14T05:49:18.096Z,52
2016-04-14T05:50:16.755Z,52
2016-04-14T05:51:15.304Z,52
2016-04-14T05:52:13.729Z,52
2016-04-14T05:53:12.310Z,52
2016-04-14T05:54:13.453Z,52
2016-04-14T05:55:11.909Z,52
2016-04-14T05:56:10.598Z,52
2016-04-14T05:57:09.070Z,52
2016-04-14T05:58:07.511Z,52
2016-04-14T05:59:06.045Z,52
2016-04-14T06:00:04.579Z,52
2016-04-14T06:01:03.128Z,52
2016-04-14T06:02:01.662Z,52
2016-04-14T06:03:00.384Z,52
2016-04-14T06:04:01.277Z,52
2016-04-14T06:04:59.826Z,52
2016-04-14T06:05:58.469Z,52
2016-04-14T06:06:57.035Z,52
2016-04-14T06:07:55.443Z,52
2016-04-14T06:08:53.993Z,52
2016-04-14T06:09:52.524Z,52
2016-04-14T06:10:51.058Z,52
2016-04-14T06:11:49.716Z,52
2016-04-14T06:12:48.204Z,52
2016-04-14T06:13:49.238Z,52
2016-04-14T06:14:47.771Z,52
2016-04-14T06:15:46.290Z,53
2016-04-14T06:16:45.090Z,52
2016-04-14T06:17:43.655Z,52
2016-04-14T06:18:42.173Z,52
2016-04-14T06:19:40.724Z,52
2016-04-14T06:20:39.288Z,52
2016-04-14T06:21:37.807Z,52
2016-04-14T06:22:36.528Z,52
2016-04-14T06:23:37.531Z,52
2016-04-14T06:24:35.956Z,52
2016-04-14T06:25:34.505Z,52
2016-04-14T06:26:33.149Z,52
2016-04-14T06:27:31.573Z,52
2016-04-14T06:28:30.123Z,52
2016-04-14T06:29:28.673Z,52
2016-04-14T06:30:27.206Z,52
2016-04-14T06:31:25.740Z,52
2016-04-14T06:32:24.336Z,52
2016-04-14T06:33:25.370Z,52
2016-04-14T06:34:23.966Z,52
2016-04-14T06:35:22.438Z,52
2016-04-14T06:36:21.097Z,52
2016-04-14T06:37:19.521Z,52
2016-04-14T06:38:18.180Z,52
2016-04-14T06:39:16.589Z,52
2016-04-14T06:40:15.139Z,52
2016-04-14T06:41:13.830Z,52
2016-04-14T06:42:12.394Z,52
2016-04-14T06:43:13.288Z,52
2016-04-14T06:44:11.946Z,52
2016-04-14T06:45:10.371Z,52
2016-04-14T06:46:09.015Z,52
2016-04-14T06:47:07.455Z,52
2016-04-14T06:48:06.004Z,52
2016-04-14T06:49:04.538Z,52
2016-04-14T06:50:03.071Z,52
2016-04-14T06:51:01.731Z,52
2016-04-14T06:52:00.202Z,52
2016-04-14T06:53:01.237Z,52
2016-04-14T06:53:59.771Z,52
2016-04-14T06:54:58.320Z,52
2016-04-14T06:55:56.870Z,52
2016-04-14T06:56:55.498Z,52
2016-04-14T06:57:53.937Z,52
2016-04-14T06:58:52.485Z,52
2016-04-14T06:59:51.004Z,52
2016-04-14T07:00:49.537Z,52
2016-04-14T07:01:48.149Z,52
2016-04-14T07:02:49.168Z,52
2016-04-14T07:03:47.701Z,52
2016-04-14T07:04:46.236Z,52
2016-04-14T07:05:44.801Z,52
2016-04-14T07:06:43.315Z,52
2016-04-14T07:07:41.974Z,52
2016-04-14T07:08:40.517Z,52
2016-04-14T07:09:38.926Z,52
2016-04-14T07:10:37.480Z,52
2016-04-14T07:11:36.047Z,52
2016-04-14T07:12:37.097Z,52
2016-04-14T07:13:35.631Z,52
2016-04-14T07:14:34.173Z,52
2016-04-14T07:15:32.721Z,52
2016-04-14T07:16:31.183Z,52
2016-04-14T07:17:29.866Z,52
2016-04-14T07:18:28.272Z,52
2016-04-14T07:19:26.869Z,52
2016-04-14T07:20:25.560Z,52
2016-04-14T07:21:24.015Z,52
2016-04-14T07:22:25.018Z,52
2016-04-14T07:23:23.567Z,52
2016-04-14T07:24:22.132Z,52
2016-04-14T07:25:20.666Z,52
2016-04-14T07:26:19.184Z,52
2016-04-14T07:27:17.843Z,52
2016-04-14T07:28:16.267Z,52
2016-04-14T07:29:14.801Z,52
2016-04-14T07:30:13.461Z,52
2016-04-14T07:31:11.932Z,52
2016-04-14T07:32:13.075Z,52
2016-04-14T07:33:11.500Z,52
2016-04-14T07:34:10.050Z,52
2016-04-14T07:35:08.692Z,52
2016-04-14T07:36:07.117Z,52
2016-04-14T07:37:05.792Z,52
2016-04-14T07:38:04.201Z,52
2016-04-14T07:39:02.736Z,52
2016-04-14T07:40:01.395Z,52
2016-04-14T07:40:59.881Z,52
2016-04-14T07:42:00.916Z,52
2016-04-14T07:42:59.433Z,52
2016-04-14T07:43:57.967Z,52
2016-04-14T07:44:56.517Z,52
2016-04-14T07:45:55.051Z,52
2016-04-14T07:46:53.613Z,52
2016-04-14T07:47:52.132Z,52
2016-04-14T07:48:50.665Z,52
2016-04-14T07:49:49.215Z,52
2016-04-14T07:50:47.562Z,52
2016-04-14T07:51:48.579Z,52
2016-04-14T07:52:47.114Z,52
2016-04-14T07:53:45.648Z,52
2016-04-14T07:54:44.182Z,52
2016-04-14T07:55:42.732Z,52
2016-04-14T07:56:41.249Z,52
2016-04-14T07:57:39.799Z,52
2016-04-14T07:58:38.348Z,52
2016-04-14T07:59:36.632Z,52
2016-04-14T08:00:34.978Z,52
2016-04-14T08:01:35.997Z,52
2016-04-14T08:02:34.297Z,52
2016-04-14T08:03:32.831Z,52
2016-04-14T08:04:31.225Z,52
2016-04-14T08:05:29.648Z,52
2016-04-14T08:06:27.933Z,52
2016-04-14T08:07:26.467Z,52
2016-04-14T08:08:25.018Z,52
2016-04-14T08:09:23.286Z,52
2016-04-14T08:10:21.621Z,52
2016-04-14T08:11:22.640Z,52
2016-04-14T08:12:20.939Z,52
2016-04-14T08:13:19.223Z,52
2016-04-14T08:14:17.507Z,52
2016-04-14T08:15:15.791Z,52
2016-04-14T08:16:14.075Z,52
2016-04-14T08:17:12.469Z,52
2016-04-14T08:18:10.643Z,52
2016-04-14T08:19:09.052Z,52
2016-04-14T08:20:07.273Z,52
2016-04-14T08:21:08.291Z,52
2016-04-14T08:22:06.700Z,52
2016-04-14T08:23:05.031Z,52
2016-04-14T08:24:03.158Z,52
2016-04-14T08:25:01.443Z,52
2016-04-14T08:25:59.304Z,52
2016-04-14T08:26:58.010Z,52
2016-04-14T08:27:56.294Z,52
2016-04-14T08:28:54.579Z,52
2016-04-14T08:29:52.922Z,52
2016-04-14T08:30:53.925Z,52
2016-04-14T08:31:52.240Z,52
2016-04-14T08:32:50.509Z,52
2016-04-14T08:33:48.918Z,52
2016-04-14T08:34:47.076Z,52
2016-04-14T08:35:45.360Z,52
2016-04-14T08:36:43.761Z,52
2016-04-14T08:37:42.295Z,52
2016-04-14T08:38:40.345Z,52
2016-04-14T08:39:38.567Z,52
2016-04-14T08:40:39.585Z,52
2016-04-14T08:41:37.931Z,52
2016-04-14T08:42:36.153Z,52
2016-04-14T08:43:34.437Z,52
2016-04-14T08:44:32.720Z,52
2016-04-14T08:45:31.005Z,52
2016-04-14T08:46:29.413Z,52
2016-04-14T08:47:27.588Z,52
2016-04-14T08:48:25.856Z,52
2016-04-14T08:49:24.202Z,52
2016-04-14T08:50:25.377Z,52
2016-04-14T08:51:23.629Z,52
2016-04-14T08:52:21.913Z,52
2016-04-14T08:53:20.229Z,52
2016-04-14T08:54:18.388Z,52
2016-04-14T08:55:16.657Z,52
2016-04-14T08:56:15.065Z,52
2016-04-14T08:57:13.224Z,52
2016-04-14T08:58:11.632Z,52
2016-04-14T08:59:09.870Z,52
2016-04-14T09:00:10.873Z,52
2016-04-14T09:01:09.173Z,52
2016-04-14T09:02:07.457Z,52
2016-04-14T09:03:05.741Z,52
2016-04-14T09:04:04.290Z,52
2016-04-14T09:05:02.934Z,52
2016-04-14T09:06:01.374Z,52
2016-04-14T09:06:59.907Z,52
2016-04-14T09:07:58.442Z,52
2016-04-14T09:08:56.787Z,52
2016-04-14T09:09:57.806Z,52
2016-04-14T09:10:56.339Z,52
2016-04-14T09:11:54.873Z,52
2016-04-14T09:12:53.420Z,52
2016-04-14T09:13:51.970Z,52
2016-04-14T09:14:50.488Z,52
2016-04-14T09:15:49.039Z,52
2016-04-14T09:16:47.572Z,52
2016-04-14T09:17:46.122Z,52
2016-04-14T09:18:44.719Z,52
2016-04-14T09:19:45.846Z,52
2016-04-14T09:20:44.395Z,52
2016-04-14T09:21:42.835Z,52
2016-04-14T09:22:41.369Z,52
2016-04-14T09:23:39.902Z,52
2016-04-14T09:24:38.437Z,52
2016-04-14T09:25:37.096Z,52
2016-04-14T09:26:35.521Z,52
2016-04-14T09:27:34.179Z,52
2016-04-14T09:28:32.667Z,52
2016-04-14T09:29:33.669Z,52
2016-04-14T09:30:32.219Z,52
2016-04-14T09:32:29.287Z,52
2016-04-14T09:33:27.821Z,52
2016-04-14T09:34:26.370Z,52
2016-04-14T09:35:24.904Z,52
2016-04-14T09:36:23.454Z,52
2016-04-14T09:37:21.738Z,52
2016-04-14T09:38:20.335Z,52
2016-04-14T09:39:21.353Z,52
2016-04-14T09:40:19.887Z,52
2016-04-14T09:41:18.186Z,52
2016-04-14T09:42:16.720Z,52
2016-04-14T09:43:15.253Z,52
2016-04-14T09:44:13.553Z,52
2016-04-14T09:45:12.087Z,52
2016-04-14T09:46:10.636Z,52
2016-04-14T09:47:09.155Z,52
2016-04-14T09:48:07.752Z,52
2016-04-14T09:49:08.895Z,52
2016-04-14T09:50:07.319Z,52
2016-04-14T09:51:05.853Z,52
2016-04-14T09:52:04.388Z,52
2016-04-14T09:53:02.937Z,52
2016-04-14T09:54:01.471Z,52
2016-04-14T09:55:00.020Z,52
2016-04-14T09:55:58.570Z,52
2016-04-14T09:56:57.135Z,52
2016-04-14T09:57:55.685Z,52
2016-04-14T09:58:56.859Z,52
2016-04-14T09:59:55.252Z,52
2016-04-14T10:00:53.768Z,52
2016-04-14T10:01:52.318Z,52
2016-04-14T10:02:50.977Z,52
2016-04-14T10:03:49.401Z,52
2016-04-14T10:04:48.060Z,52
2016-04-14T10:05:46.470Z,52
2016-04-14T10:06:45.128Z,52
2016-04-14T10:07:43.616Z,52
2016-04-14T10:08:44.634Z,52
2016-04-14T10:09:43.168Z,52
2016-04-14T10:10:41.702Z,52
2016-04-14T10:11:40.251Z,52
2016-04-14T10:12:38.754Z,53
2016-04-14T10:13:37.131Z,53
2016-04-14T10:14:36.337Z,53
2016-04-14T10:15:35.136Z,53
2016-04-14T10:16:33.952Z,53
2016-04-14T10:17:32.783Z,53
2016-04-14T10:18:33.786Z,53
2016-04-14T10:19:32.851Z,53
2016-04-14T10:20:31.885Z,53
2016-04-14T10:21:30.919Z,54
2016-04-14T10:22:29.968Z,54
2016-04-14T10:23:29.018Z,54
2016-04-14T10:24:28.067Z,54
2016-04-14T10:25:27.101Z,54
2016-04-14T10:26:26.276Z,54
2016-04-14T10:27:25.246Z,53
2016-04-14T10:28:26.390Z,53
2016-04-14T10:29:25.174Z,53
2016-04-14T10:30:23.974Z,53
2016-04-14T10:31:22.649Z,53
2016-04-14T10:32:21.432Z,53
2016-04-14T10:33:20.232Z,53
2016-04-14T10:34:19.016Z,53
2016-04-14T10:35:17.815Z,53
2016-04-14T10:36:16.616Z,53
2016-04-14T10:37:15.477Z,52
2016-04-14T10:38:16.637Z,52
2016-04-14T10:39:14.780Z,52
2016-04-14T10:40:13.001Z,51
2016-04-14T10:41:11.098Z,51
2016-04-14T10:42:09.037Z,50
2016-04-14T10:43:10.462Z,50
2016-04-14T10:44:11.777Z,50
2016-04-14T10:45:13.109Z,50
2016-04-14T10:46:14.548Z,50
2016-04-14T10:47:15.817Z,50
2016-04-14T10:48:16.836Z,50
2016-04-14T10:49:18.166Z,50
2016-04-14T10:50:19.481Z,50
2016-04-14T10:51:20.811Z,50
2016-04-14T10:52:22.142Z,50
2016-04-14T10:53:23.582Z,50
2016-04-14T10:54:24.804Z,50
2016-04-14T10:55:26.244Z,50
2016-04-14T10:56:27.450Z,50
2016-04-14T10:57:28.828Z,50
2016-04-14T10:58:29.862Z,50
2016-04-14T10:59:31.427Z,51
2016-04-14T11:02:24.998Z,51
2016-04-14T11:03:22.907Z,51
2016-04-14T11:04:20.941Z,51
2016-04-14T11:05:18.850Z,52
2016-04-14T11:07:15.683Z,52
2016-04-14T11:08:16.514Z,52
2016-04-14T11:09:14.907Z,52
2016-04-14T11:10:13.191Z,52
2016-04-14T11:11:11.381Z,52
2016-04-14T11:12:09.759Z,52
2016-04-14T11:13:07.933Z,52
2016-04-14T11:14:06.609Z,52
2016-04-14T11:15:05.142Z,52
2016-04-14T11:16:03.551Z,52
2016-04-14T11:17:02.131Z,53
2016-04-14T11:18:03.384Z,53
2016-04-14T11:19:02.075Z,53
2016-04-14T11:20:00.733Z,53
2016-04-14T11:20:59.517Z,53
2016-04-14T11:21:58.316Z,53
2016-04-14T11:22:57.225Z,53
2016-04-14T11:23:55.916Z,53
2016-04-14T11:24:54.682Z,53
2016-04-14T11:25:53.591Z,53
2016-04-14T11:26:52.578Z,53
2016-04-14T11:27:53.596Z,53
2016-04-14T11:28:52.505Z,53
2016-04-14T11:29:51.445Z,53
2016-04-14T11:30:50.479Z,53
2016-04-14T11:31:49.544Z,53
2016-04-14T11:32:48.579Z,53
2016-04-14T11:33:47.738Z,53
2016-04-14T11:34:46.801Z,53
2016-04-14T11:35:45.836Z,53
2016-04-14T11:37:45.966Z,54
2016-04-14T11:38:45.265Z,54
2016-04-14T11:39:44.564Z,54
2016-04-14T11:40:43.739Z,54
2016-04-14T11:41:43.180Z,54
2016-04-14T11:42:42.339Z,54
2016-04-14T11:43:41.670Z,54
2016-04-14T11:44:40.953Z,54
2016-04-14T11:45:40.363Z,54
2016-04-14T11:46:39.724Z,54
2016-04-14T11:47:40.743Z,54
2016-04-14T11:48:40.042Z,54
2016-04-14T11:49:39.341Z,54
2016-04-14T11:50:38.646Z,54
2016-04-14T11:51:37.821Z,54
2016-04-14T11:52:37.246Z,54
2016-04-14T11:53:36.545Z,54
2016-04-14T11:54:35.720Z,54
2016-04-14T11:55:35.144Z,54
2016-04-14T11:56:34.756Z,54
2016-04-14T11:57:35.774Z,54
2016-04-14T11:58:35.214Z,54
2016-04-14T11:59:34.873Z,54
2016-04-14T12:00:34.314Z,54
2016-04-14T12:01:33.989Z,54
2016-04-14T12:02:33.429Z,55
2016-04-14T12:03:33.369Z,55
2016-04-14T12:04:32.637Z,55
2016-04-14T12:05:32.858Z,55
2016-04-14T12:06:32.720Z,55
2016-04-14T12:07:33.739Z,55
2016-04-14T12:08:33.553Z,55
2016-04-14T12:09:33.463Z,55
2016-04-14T12:10:33.387Z,55
2016-04-14T12:11:32.969Z,55
2016-04-14T12:12:32.893Z,55
2016-04-14T12:13:32.708Z,55
2016-04-14T12:15:32.572Z,55
2016-04-14T12:16:32.700Z,55
2016-04-14T12:17:33.610Z,55
2016-04-14T12:18:33.675Z,55
2016-04-14T12:19:33.849Z,56
2016-04-14T12:20:34.040Z,56
2016-04-14T12:21:34.526Z,56
2016-04-14T12:23:34.985Z,56
2016-04-14T12:25:35.615Z,56
2016-04-14T12:26:35.993Z,56
2016-04-14T12:27:37.011Z,56
2016-04-14T12:28:37.437Z,56
2016-04-14T12:29:38.017Z,56
2016-04-14T12:30:38.582Z,56
2016-04-14T12:31:39.053Z,56
2016-04-14T12:32:39.603Z,56
2016-04-14T12:33:40.168Z,56
2016-04-14T12:34:40.858Z,56
2016-04-14T12:35:41.314Z,56
2016-04-14T12:36:41.925Z,56
2016-04-14T12:37:43.069Z,56
2016-04-14T12:38:43.369Z,56
2016-04-14T12:39:43.825Z,56
2016-04-14T12:40:44.515Z,56
2016-04-14T12:41:44.971Z,56
2016-04-14T12:43:46.101Z,56
2016-04-14T12:45:47.357Z,56
2016-04-14T12:47:48.894Z,56
2016-04-14T12:48:49.458Z,56
2016-04-14T12:49:50.024Z,56
2016-04-14T12:50:50.588Z,56
2016-04-14T12:51:51.169Z,56
2016-04-14T12:52:51.734Z,56
2016-04-14T12:53:52.299Z,56
2016-04-14T12:54:52.865Z,56
2016-04-14T12:55:53.555Z,56
2016-04-14T12:56:54.058Z,56
2016-04-14T12:57:55.249Z,56
2016-04-14T12:58:55.657Z,56
2016-04-14T12:59:56.225Z,57
2016-04-14T13:00:57.040Z,57
2016-04-14T13:01:57.870Z,57
2016-04-14T13:02:58.686Z,57
2016-04-14T13:03:59.517Z,57
2016-04-14T13:05:00.331Z,57
2016-04-14T13:06:01.164Z,57
2016-04-14T13:07:02.041Z,57
2016-04-14T13:08:03.169Z,57
2016-04-14T13:09:03.875Z,57
2016-04-14T13:10:04.723Z,57
2016-04-14T13:11:05.725Z,57
2016-04-14T13:12:06.365Z,57
2016-04-14T13:13:07.180Z,57
2016-04-14T13:14:08.245Z,57
2016-04-14T13:15:09.076Z,57
2016-04-14T13:16:10.141Z,57
2016-04-14T13:17:11.269Z,57
2016-04-14T13:18:12.302Z,57
2016-04-14T13:19:13.383Z,57
2016-04-14T13:20:14.574Z,57
2016-04-14T13:21:15.451Z,57
2016-04-14T13:22:16.595Z,57
2016-04-14T13:24:18.741Z,57
2016-04-14T13:25:19.931Z,57
2016-04-14T13:26:20.903Z,57
2016-04-14T13:27:22.014Z,57
2016-04-14T13:28:23.049Z,57
2016-04-14T13:29:24.129Z,57
2016-04-14T13:30:25.194Z,57
2016-04-14T13:31:26.274Z,57
2016-04-14T13:32:27.341Z,57
2016-04-14T13:33:28.405Z,58
2016-04-14T13:34:29.737Z,58
2016-04-14T13:35:31.068Z,58
2016-04-14T13:36:32.398Z,58
2016-04-14T13:37:33.791Z,57
2016-04-14T13:38:34.809Z,58
2016-04-14T13:39:36.125Z,58
2016-04-14T13:40:37.471Z,57
2016-04-14T13:41:38.662Z,58
2016-04-14T13:42:39.930Z,58
2016-04-14T13:43:41.198Z,58
2016-04-14T13:44:42.514Z,58
2016-04-14T13:45:43.844Z,58
2016-04-14T13:46:45.175Z,58
2016-04-14T13:47:46.692Z,58
2016-04-14T13:48:47.586Z,58
2016-04-14T13:49:49.480Z,58
2016-04-14T13:50:50.233Z,58
2016-04-14T13:51:51.564Z,58
2016-04-14T13:52:53.003Z,58
2016-04-14T13:53:54.225Z,58
2016-04-14T13:54:55.555Z,58
2016-04-14T13:55:56.998Z,58
2016-04-14T13:56:58.204Z,58
2016-04-14T13:57:59.597Z,58
2016-04-14T13:59:01.271Z,58
2016-04-14T14:00:01.947Z,58
2016-04-14T14:01:03.262Z,58
2016-04-14T14:02:04.733Z,58
2016-04-14T14:03:05.923Z,58
2016-04-14T14:04:07.379Z,58
2016-04-14T14:05:09.085Z,58
2016-04-14T14:06:09.916Z,58
2016-04-14T14:07:11.247Z,58
2016-04-14T14:08:12.891Z,58
2016-04-14T14:09:13.893Z,58
2016-04-14T14:10:15.490Z,58
2016-04-14T14:11:17.179Z,58
2016-04-14T14:12:18.651Z,58
2016-04-14T14:13:20.231Z,58
2016-04-14T14:14:21.937Z,58
2016-04-14T14:15:23.393Z,58
2016-04-14T14:16:24.975Z,58
2016-04-14T14:17:26.681Z,58
2016-04-14T14:18:28.198Z,58
2016-04-14T14:19:29.227Z,58
2016-04-14T14:20:30.850Z,58
2016-04-14T14:21:32.599Z,58
2016-04-14T14:22:34.222Z,58
2016-04-14T14:23:35.736Z,58
2016-04-14T14:24:37.353Z,58
2016-04-14T14:26:40.780Z,58
2016-04-14T14:27:42.173Z,58